createdAt,value
2018-09-17T00:00:44.265Z,16.30
2018-09-17T00:03:13.941Z,16.30
2018-09-17T00:05:43.596Z,16.30
2018-09-17T00:08:13.265Z,16.40
2018-09-17T00:10:43.016Z,16.40
2018-09-17T00:13:12.700Z,16.40
2018-09-17T00:15:42.332Z,16.40
2018-09-17T00:18:11.936Z,16.40
2018-09-17T00:20:41.533Z,16.40
2018-09-17T00:23:11.398Z,16.30
2018-09-17T00:25:41.048Z,16.30
2018-09-17T00:28:10.728Z,16.30
2018-09-17T00:30:40.390Z,16.30
2018-09-17T00:33:10.157Z,16.20
2018-09-17T00:35:39.800Z,16.20
2018-09-17T00:38:09.692Z,16.30
2018-09-17T00:40:39.547Z,16.30
2018-09-17T00:43:09.251Z,16.20
2018-09-17T00:45:38.911Z,16.30
2018-09-17T00:48:08.637Z,16.30
2018-09-17T00:50:38.328Z,16.20
2018-09-17T00:53:07.984Z,16.20
2018-09-17T00:55:37.732Z,16.10
2018-09-17T00:58:07.407Z,16.10
2018-09-17T01:00:37.184Z,16.10
2018-09-17T01:03:06.875Z,16.10
2018-09-17T01:05:36.639Z,16.10
2018-09-17T01:08:06.649Z,16.20
2018-09-17T01:10:36.440Z,16.20
2018-09-17T01:13:06.231Z,16.10
2018-09-17T01:15:35.951Z,16.10
2018-09-17T01:18:05.748Z,16.10
2018-09-17T01:20:35.402Z,16.10
2018-09-17T01:23:06.876Z,16.10
2018-09-17T01:25:39.748Z,16.10
2018-09-17T01:28:13.569Z,16.10
2018-09-17T01:30:46.684Z,16.00
2018-09-17T01:33:16.341Z,16.00
2018-09-17T01:35:46.006Z,16.00
2018-09-17T01:38:15.934Z,16.00
2018-09-17T01:40:45.781Z,16.00
2018-09-17T01:43:15.599Z,16.00
2018-09-17T01:45:45.465Z,15.90
2018-09-17T01:48:15.084Z,15.90
2018-09-17T01:50:44.877Z,15.80
2018-09-17T01:53:14.539Z,15.80
2018-09-17T01:55:44.414Z,15.80
2018-09-17T01:58:14.056Z,15.80
2018-09-17T02:00:43.817Z,15.70
2018-09-17T02:03:13.478Z,15.80
2018-09-17T02:05:43.267Z,15.70
2018-09-17T02:08:12.868Z,15.80
2018-09-17T02:10:42.598Z,15.90
2018-09-17T02:13:12.492Z,15.90
2018-09-17T02:15:42.240Z,15.90
2018-09-17T02:18:11.924Z,15.90
2018-09-17T02:20:41.496Z,15.90
2018-09-17T02:23:11.149Z,15.90
2018-09-17T02:25:40.820Z,15.90
2018-09-17T02:28:10.464Z,16.00
2018-09-17T02:30:40.158Z,16.00
2018-09-17T02:33:09.946Z,16.10
2018-09-17T02:35:39.693Z,16.10
2018-09-17T02:38:09.413Z,16.00
2018-09-17T02:40:39.334Z,16.10
2018-09-17T02:43:09.117Z,16.10
2018-09-17T02:45:38.855Z,16.10
2018-09-17T02:48:08.670Z,16.10
2018-09-17T02:50:38.529Z,16.20
2018-09-17T02:53:08.164Z,16.10
2018-09-17T02:55:37.840Z,16.10
2018-09-17T02:58:07.492Z,16.10
2018-09-17T03:00:37.184Z,16.10
2018-09-17T03:03:06.926Z,16.00
2018-09-17T03:05:36.626Z,16.00
2018-09-17T03:08:06.500Z,16.00
2018-09-17T03:10:36.239Z,15.90
2018-09-17T03:13:06.021Z,15.80
2018-09-17T03:15:46.256Z,15.80
2018-09-17T03:18:16.014Z,15.80
2018-09-17T03:20:45.791Z,15.80
2018-09-17T03:23:15.346Z,15.80
2018-09-17T03:25:45.117Z,15.80
2018-09-17T03:28:14.764Z,15.80
2018-09-17T03:30:44.444Z,15.80
2018-09-17T03:33:14.137Z,15.70
2018-09-17T03:35:43.782Z,15.70
2018-09-17T03:38:29.590Z,15.60
2018-09-17T03:40:59.256Z,15.50
2018-09-17T03:43:28.892Z,15.50
2018-09-17T03:45:59.088Z,15.50
2018-09-17T03:48:29.528Z,15.40
2018-09-17T03:50:59.641Z,15.50
2018-09-17T03:53:29.636Z,15.50
2018-09-17T03:55:59.672Z,15.50
2018-09-17T03:58:30.009Z,15.50
2018-09-17T04:01:00.312Z,15.50
2018-09-17T04:03:30.016Z,15.50
2018-09-17T04:05:59.945Z,15.50
2018-09-17T04:08:31.982Z,15.50
2018-09-17T04:11:01.813Z,15.60
2018-09-17T04:13:31.459Z,15.60
2018-09-17T04:16:01.283Z,15.70
2018-09-17T04:18:30.911Z,15.70
2018-09-17T04:21:00.570Z,15.70
2018-09-17T04:23:34.022Z,15.60
2018-09-17T04:26:05.066Z,15.50
2018-09-17T04:28:35.325Z,15.60
2018-09-17T04:31:05.438Z,15.50
2018-09-17T04:33:37.363Z,15.50
2018-09-17T04:36:07.429Z,15.40
2018-09-17T04:38:37.210Z,15.40
2018-09-17T04:41:06.952Z,15.40
2018-09-17T04:43:36.740Z,15.30
2018-09-17T04:46:06.383Z,15.30
2018-09-17T04:48:35.980Z,15.20
2018-09-17T04:51:05.761Z,15.30
2018-09-17T04:53:35.501Z,15.30
2018-09-17T04:56:05.176Z,15.40
2018-09-17T04:58:34.828Z,15.50
2018-09-17T05:01:04.602Z,15.50
2018-09-17T05:03:34.275Z,15.50
2018-09-17T05:06:04.056Z,15.50
2018-09-17T05:08:33.736Z,15.60
2018-09-17T05:11:03.288Z,15.60
2018-09-17T05:13:33.146Z,15.60
2018-09-17T05:16:02.980Z,15.70
2018-09-17T05:18:32.597Z,15.80
2018-09-17T05:21:02.293Z,15.90
2018-09-17T05:23:31.927Z,16.00
2018-09-17T05:26:01.697Z,16.10
2018-09-17T05:28:31.360Z,16.20
2018-09-17T05:31:01.036Z,16.30
2018-09-17T05:33:30.834Z,16.30
2018-09-17T05:36:00.460Z,16.40
2018-09-17T05:38:30.156Z,16.40
2018-09-17T05:40:59.817Z,16.50
2018-09-17T05:43:29.581Z,16.50
2018-09-17T05:45:59.220Z,16.60
2018-09-17T05:48:29.013Z,16.60
2018-09-17T05:50:58.684Z,16.70
2018-09-17T05:53:28.345Z,16.70
2018-09-17T05:55:58.038Z,16.80
2018-09-17T05:58:27.721Z,16.80
2018-09-17T06:00:57.396Z,16.80
2018-09-17T06:03:27.041Z,16.90
2018-09-17T06:05:56.736Z,17.00
2018-09-17T06:08:26.473Z,17.00
2018-09-17T06:10:56.157Z,17.00
2018-09-17T06:13:25.897Z,17.10
2018-09-17T06:15:55.588Z,17.20
2018-09-17T06:18:25.231Z,17.30
2018-09-17T06:20:54.904Z,17.30
2018-09-17T06:23:24.744Z,17.40
2018-09-17T06:25:54.528Z,17.40
2018-09-17T06:28:24.187Z,17.50
2018-09-17T06:30:53.859Z,17.60
2018-09-17T06:33:23.556Z,17.70
2018-09-17T06:35:53.194Z,17.90
2018-09-17T06:38:22.868Z,17.90
2018-09-17T06:40:52.521Z,18.00
2018-09-17T06:43:22.397Z,18.10
2018-09-17T06:45:52.147Z,18.20
2018-09-17T06:48:22.015Z,18.30
2018-09-17T06:50:51.775Z,18.40
2018-09-17T06:53:21.468Z,18.50
2018-09-17T06:55:51.158Z,18.50
2018-09-17T06:58:20.976Z,18.60
2018-09-17T07:00:50.672Z,18.70
2018-09-17T07:03:20.320Z,18.70
2018-09-17T07:05:50.191Z,18.80
2018-09-17T07:08:20.024Z,18.90
2018-09-17T07:10:49.639Z,18.90
2018-09-17T07:13:19.373Z,19.10
2018-09-17T07:15:49.164Z,19.20
2018-09-17T07:18:18.844Z,19.20
2018-09-17T07:20:48.503Z,19.30
2018-09-17T07:23:18.274Z,19.40
2018-09-17T07:25:47.918Z,19.40
2018-09-17T07:28:17.705Z,19.50
2018-09-17T07:30:47.388Z,19.60
2018-09-17T07:33:17.052Z,19.70
2018-09-17T07:35:47.015Z,19.80
2018-09-17T07:38:16.883Z,20.00
2018-09-17T07:40:46.647Z,20.30
2018-09-17T07:43:16.292Z,20.50
2018-09-17T07:45:46.129Z,21.10
2018-09-17T07:48:15.921Z,22.00
2018-09-17T07:50:45.727Z,22.90
2018-09-17T07:53:15.456Z,24.10
2018-09-17T07:55:45.232Z,24.90
2018-09-17T07:58:15.026Z,25.50
2018-09-17T08:00:44.772Z,26.00
2018-09-17T08:03:14.541Z,27.00
2018-09-17T08:05:44.157Z,28.00
2018-09-17T08:08:13.765Z,28.30
2018-09-17T08:10:43.519Z,29.30
2018-09-17T08:13:13.187Z,30.30
2018-09-17T08:15:42.878Z,31.00
2018-09-17T08:18:12.557Z,31.70
2018-09-17T08:20:42.440Z,32.10
2018-09-17T08:23:12.061Z,32.60
2018-09-17T08:25:41.795Z,33.20
2018-09-17T08:28:11.533Z,33.00
2018-09-17T08:30:41.273Z,33.40
2018-09-17T08:33:10.961Z,33.70
2018-09-17T08:35:40.709Z,34.00
2018-09-17T08:38:10.482Z,34.00
2018-09-17T08:40:40.216Z,33.90
2018-09-17T08:43:09.821Z,33.80
2018-09-17T08:45:39.653Z,34.00
2018-09-17T08:48:09.373Z,33.70
2018-09-17T08:50:39.129Z,33.90
2018-09-17T08:53:08.821Z,34.10
2018-09-17T08:55:43.642Z,34.00
2018-09-17T08:58:18.523Z,33.70
2018-09-17T09:00:53.123Z,34.10
2018-09-17T09:03:30.187Z,34.20
2018-09-17T09:06:04.988Z,34.20
2018-09-17T09:08:34.834Z,34.70
2018-09-17T09:11:09.649Z,35.10
2018-09-17T09:13:44.303Z,35.80
2018-09-17T09:16:13.933Z,35.60
2018-09-17T09:18:43.621Z,35.90
2018-09-17T09:21:13.379Z,36.40
2018-09-17T09:23:43.139Z,36.40
2018-09-17T09:26:12.801Z,35.50
2018-09-17T09:28:42.472Z,35.10
2018-09-17T09:31:12.165Z,35.20
2018-09-17T09:33:41.821Z,35.60
2018-09-17T09:36:11.722Z,35.80
2018-09-17T09:38:41.344Z,36.40
2018-09-17T09:41:11.136Z,37.00
2018-09-17T09:43:40.821Z,36.90
2018-09-17T09:46:10.438Z,37.00
2018-09-17T09:48:40.241Z,36.30
2018-09-17T09:51:09.885Z,36.00
2018-09-17T09:53:39.557Z,36.00
2018-09-17T09:56:09.313Z,35.90
2018-09-17T09:58:38.996Z,36.00
2018-09-17T10:01:13.683Z,35.60
2018-09-17T10:03:44.484Z,36.00
2018-09-17T10:06:15.503Z,35.90
2018-09-17T10:08:50.360Z,35.30
2018-09-17T10:11:25.400Z,34.60
2018-09-17T10:14:00.158Z,34.40
2018-09-17T10:16:30.025Z,34.50
2018-09-17T10:19:04.974Z,34.40
2018-09-17T10:21:34.713Z,34.10
2018-09-17T10:24:04.376Z,33.60
2018-09-17T10:26:34.084Z,32.70
2018-09-17T10:29:03.866Z,32.10
2018-09-17T10:31:33.506Z,31.20
2018-09-17T10:34:03.131Z,30.70
2018-09-17T10:36:32.888Z,30.00
2018-09-17T10:39:02.697Z,29.40
2018-09-17T10:41:32.524Z,29.00
2018-09-17T10:44:02.139Z,28.50
2018-09-17T10:46:31.822Z,28.30
2018-09-17T10:49:01.486Z,28.30
2018-09-17T10:51:31.163Z,28.10
2018-09-17T10:54:00.971Z,28.00
2018-09-17T10:56:30.580Z,27.90
2018-09-17T10:59:00.280Z,27.50
2018-09-17T11:01:29.937Z,27.30
2018-09-17T11:03:59.607Z,27.40
2018-09-17T11:06:29.314Z,27.20
2018-09-17T11:08:59.137Z,26.90
2018-09-17T11:11:28.833Z,26.70
2018-09-17T11:13:58.448Z,26.60
2018-09-17T11:16:37.427Z,26.50
2018-09-17T11:19:11.141Z,26.50
2018-09-17T11:21:43.351Z,26.50
2018-09-17T11:24:13.046Z,26.40
2018-09-17T11:26:42.596Z,26.40
2018-09-17T11:29:12.738Z,26.30
2018-09-17T11:31:42.636Z,26.30
2018-09-17T11:34:12.375Z,26.30
2018-09-17T11:36:42.363Z,26.20
2018-09-17T11:39:12.170Z,26.30
2018-09-17T11:41:42.053Z,26.30
2018-09-17T11:44:11.660Z,26.30
2018-09-17T11:46:41.196Z,26.30
2018-09-17T11:49:11.004Z,26.30
2018-09-17T11:51:40.705Z,26.20
2018-09-17T11:54:10.484Z,26.20
2018-09-17T11:56:40.157Z,26.10
2018-09-17T11:59:09.900Z,26.10
2018-09-17T12:01:44.690Z,25.90
2018-09-17T12:04:15.905Z,25.80
2018-09-17T12:06:50.597Z,25.70
2018-09-17T12:09:20.266Z,25.70
2018-09-17T12:11:50.015Z,25.70
2018-09-17T12:14:19.628Z,25.70
2018-09-17T12:16:49.281Z,25.70
2018-09-17T12:19:18.976Z,25.70
2018-09-17T12:21:48.783Z,25.60
2018-09-17T12:24:18.421Z,25.60
2018-09-17T12:26:48.188Z,25.60
2018-09-17T12:29:18.027Z,25.60
2018-09-17T12:31:47.710Z,25.60
2018-09-17T12:34:17.353Z,25.70
2018-09-17T12:36:47.038Z,25.70
2018-09-17T12:39:16.828Z,25.70
2018-09-17T12:41:46.496Z,25.80
2018-09-17T12:44:16.148Z,25.80
2018-09-17T12:46:45.906Z,25.70
2018-09-17T12:49:15.667Z,25.70
2018-09-17T12:51:45.331Z,25.60
2018-09-17T12:54:15.177Z,25.60
2018-09-17T12:56:45.049Z,25.70
2018-09-17T12:59:14.771Z,25.70
2018-09-17T13:01:44.420Z,25.70
2018-09-17T13:04:14.076Z,25.70
2018-09-17T13:06:43.740Z,25.70
2018-09-17T13:09:13.397Z,25.60
2018-09-17T13:11:43.069Z,25.60
2018-09-17T13:14:12.765Z,25.60
2018-09-17T13:16:42.417Z,25.50
2018-09-17T13:19:13.132Z,25.50
2018-09-17T13:21:42.812Z,25.50
2018-09-17T13:24:12.464Z,25.50
2018-09-17T13:26:42.064Z,25.50
2018-09-17T13:29:11.798Z,25.60
2018-09-17T13:31:41.553Z,25.60
2018-09-17T13:34:11.364Z,25.50
2018-09-17T13:36:41.138Z,25.40
2018-09-17T13:39:10.880Z,25.40
2018-09-17T13:41:40.644Z,25.30
2018-09-17T13:44:10.462Z,25.30
2018-09-17T13:46:40.028Z,25.40
2018-09-17T13:49:09.665Z,25.40
2018-09-17T13:51:39.464Z,25.40
2018-09-17T13:54:09.188Z,25.40
2018-09-17T13:56:38.977Z,25.30
2018-09-17T13:59:08.737Z,25.30
2018-09-17T14:01:38.497Z,25.30
2018-09-17T14:04:08.297Z,25.20
2018-09-17T14:06:37.934Z,25.20
2018-09-17T14:09:10.497Z,25.10
2018-09-17T14:11:40.625Z,25.10
2018-09-17T14:14:10.542Z,25.10
2018-09-17T14:16:40.187Z,25.00
2018-09-17T14:19:10.081Z,25.00
2018-09-17T14:21:39.784Z,25.00
2018-09-17T14:24:09.485Z,24.90
2018-09-17T14:26:39.127Z,24.90
2018-09-17T14:29:09.125Z,24.90
2018-09-17T14:31:44.022Z,24.80
2018-09-17T14:34:13.636Z,24.70
2018-09-17T14:36:43.308Z,24.60
2018-09-17T14:39:14.022Z,24.60
2018-09-17T14:41:43.883Z,24.60
2018-09-17T14:44:13.556Z,24.50
2018-09-17T14:46:43.234Z,24.40
2018-09-17T14:49:13.056Z,24.40
2018-09-17T14:51:42.943Z,24.40
2018-09-17T14:54:12.670Z,24.40
2018-09-17T14:56:42.598Z,24.40
2018-09-17T14:59:12.316Z,24.40
2018-09-17T15:01:42.072Z,24.40
2018-09-17T15:04:11.956Z,24.40
2018-09-17T15:06:41.724Z,24.40
2018-09-17T15:09:11.717Z,24.40
2018-09-17T15:11:41.354Z,24.40
2018-09-17T15:14:12.052Z,24.30
2018-09-17T15:16:41.984Z,24.30
2018-09-17T15:19:11.543Z,24.20
2018-09-17T15:21:41.384Z,24.20
2018-09-17T15:24:11.078Z,24.10
2018-09-17T15:26:40.800Z,24.10
2018-09-17T15:29:10.456Z,24.00
2018-09-17T15:31:41.195Z,23.90
2018-09-17T15:34:10.950Z,23.90
2018-09-17T15:36:40.345Z,23.90
2018-09-17T15:39:12.062Z,23.90
2018-09-17T15:41:41.515Z,23.90
2018-09-17T15:44:11.306Z,23.80
2018-09-17T15:46:40.733Z,23.80
2018-09-17T15:49:10.087Z,23.80
2018-09-17T15:51:39.520Z,23.80
2018-09-17T15:54:08.904Z,23.80
2018-09-17T15:56:38.271Z,23.70
2018-09-17T15:59:07.668Z,23.80
2018-09-17T16:01:37.015Z,23.70
2018-09-17T16:04:06.387Z,23.70
2018-09-17T16:06:35.760Z,23.60
2018-09-17T16:09:06.541Z,23.60
2018-09-17T16:11:35.942Z,23.60
2018-09-17T16:14:05.542Z,23.50
2018-09-17T16:16:35.177Z,23.40
2018-09-17T16:19:04.538Z,23.40
2018-09-17T16:21:33.905Z,23.30
2018-09-17T16:24:03.263Z,23.20
2018-09-17T16:26:32.624Z,23.20
2018-09-17T16:29:01.972Z,23.10
2018-09-17T16:31:31.349Z,23.00
2018-09-17T16:34:01.157Z,22.90
2018-09-17T16:36:30.937Z,22.80
2018-09-17T16:39:00.308Z,22.70
2018-09-17T16:41:29.689Z,22.60
2018-09-17T16:43:59.044Z,22.50
2018-09-17T16:46:29.125Z,22.40
2018-09-17T16:48:58.521Z,22.30
2018-09-17T16:51:27.922Z,22.20
2018-09-17T16:53:57.333Z,22.20
2018-09-17T16:56:26.688Z,22.10
2018-09-17T16:58:56.090Z,22.00
2018-09-17T17:01:25.473Z,21.90
2018-09-17T17:03:54.835Z,21.90
2018-09-17T17:06:24.543Z,21.80
2018-09-17T17:08:53.920Z,21.70
2018-09-17T17:11:23.385Z,21.60
2018-09-17T17:13:52.670Z,21.60
2018-09-17T17:16:22.096Z,21.50
2018-09-17T17:18:51.523Z,21.40
2018-09-17T17:21:20.829Z,21.30
2018-09-17T17:23:50.176Z,21.20
2018-09-17T17:26:20.374Z,21.10
2018-09-17T17:28:50.097Z,21.10
2018-09-17T17:31:19.476Z,21.00
2018-09-17T17:33:49.428Z,20.90
2018-09-17T17:36:18.748Z,20.90
2018-09-17T17:38:48.176Z,20.80
2018-09-17T17:41:17.572Z,20.70
2018-09-17T17:43:47.026Z,20.70
2018-09-17T17:46:16.614Z,20.70
2018-09-17T17:48:45.920Z,20.60
2018-09-17T17:51:15.367Z,20.60
2018-09-17T17:53:45.143Z,20.50
2018-09-17T17:56:14.651Z,20.40
2018-09-17T17:58:44.035Z,20.40
2018-09-17T18:01:13.666Z,20.40
2018-09-17T18:03:43.093Z,20.30
2018-09-17T18:06:12.499Z,20.30
2018-09-17T18:08:41.990Z,20.20
2018-09-17T18:11:11.406Z,20.20
2018-09-17T18:13:40.945Z,20.20
2018-09-17T18:16:10.333Z,20.20
2018-09-17T18:18:40.392Z,20.20
2018-09-17T18:21:09.855Z,20.10
2018-09-17T18:23:39.941Z,20.10
2018-09-17T18:26:09.512Z,20.00
2018-09-17T18:28:39.373Z,20.00
2018-09-17T18:31:08.949Z,19.90
2018-09-17T18:33:38.663Z,19.90
2018-09-17T18:36:08.564Z,19.80
2018-09-17T18:38:38.285Z,19.80
2018-09-17T18:41:07.791Z,19.70
2018-09-17T18:43:37.560Z,19.60
2018-09-17T18:46:07.040Z,19.50
2018-09-17T18:48:36.921Z,19.50
2018-09-17T18:51:06.577Z,19.40
2018-09-17T18:53:35.939Z,19.40
2018-09-17T18:56:05.357Z,19.40
2018-09-17T18:58:34.801Z,19.30
2018-09-17T19:01:04.183Z,19.30
2018-09-17T19:03:33.537Z,19.30
2018-09-17T19:06:09.942Z,19.20
2018-09-17T19:08:44.853Z,19.20
2018-09-17T19:11:18.170Z,19.20
2018-09-17T19:13:52.796Z,19.20
2018-09-17T19:16:27.136Z,19.10
2018-09-17T19:18:56.520Z,19.10
2018-09-17T19:21:30.107Z,19.00
2018-09-17T19:24:04.538Z,19.00
2018-09-17T19:26:34.204Z,19.00
2018-09-17T19:29:22.506Z,19.00
2018-09-17T19:31:52.287Z,19.00
2018-09-17T19:34:22.122Z,18.90
2018-09-17T19:36:51.841Z,18.90
2018-09-17T19:39:26.458Z,18.90
2018-09-17T19:41:55.895Z,18.90
2018-09-17T19:44:25.678Z,18.90
2018-09-17T19:46:55.026Z,18.80
2018-09-17T19:49:24.706Z,18.80
2018-09-17T19:51:59.435Z,18.80
2018-09-17T19:54:28.884Z,18.80
2018-09-17T19:56:58.239Z,18.80
2018-09-17T19:59:32.546Z,18.70
2018-09-17T20:02:02.275Z,18.70
2018-09-17T20:04:36.880Z,18.80
2018-09-17T20:07:06.292Z,18.70
2018-09-17T20:09:35.976Z,18.70
2018-09-17T20:12:05.629Z,18.70
2018-09-17T20:14:35.017Z,18.60
2018-09-17T20:17:04.788Z,18.60
2018-09-17T20:19:34.157Z,18.60
2018-09-17T20:22:04.034Z,18.60
2018-09-17T20:24:33.621Z,18.60
2018-09-17T20:27:02.986Z,18.60
2018-09-17T20:29:32.699Z,18.60
2018-09-17T20:32:02.392Z,18.60
2018-09-17T20:34:31.997Z,18.50
2018-09-17T20:37:01.511Z,18.50
2018-09-17T20:39:31.269Z,18.50
2018-09-17T20:42:01.100Z,18.50
2018-09-17T20:44:30.485Z,18.50
2018-09-17T20:46:59.890Z,18.40
2018-09-17T20:49:29.263Z,18.40
2018-09-17T20:51:58.933Z,18.40
2018-09-17T20:54:28.604Z,18.30
2018-09-17T20:56:58.248Z,18.30
2018-09-17T20:59:27.609Z,18.30
2018-09-17T21:01:56.980Z,18.30
2018-09-17T21:04:26.331Z,18.30
2018-09-17T21:06:55.781Z,18.30
2018-09-17T21:09:25.195Z,18.30
2018-09-17T21:11:54.544Z,18.20
2018-09-17T21:14:23.900Z,18.20
2018-09-17T21:16:53.290Z,18.20
2018-09-17T21:19:22.782Z,18.20
2018-09-17T21:21:52.458Z,18.20
2018-09-17T21:24:22.349Z,18.10
2018-09-17T21:26:52.072Z,18.10
2018-09-17T21:29:21.899Z,18.10
2018-09-17T21:31:51.670Z,18.10
2018-09-17T21:34:21.440Z,18.00
2018-09-17T21:36:51.285Z,18.10
2018-09-17T21:39:21.170Z,18.10
2018-09-17T21:41:50.852Z,18.10
2018-09-17T21:44:20.608Z,18.10
2018-09-17T21:46:50.287Z,18.10
2018-09-17T21:49:20.072Z,18.10
2018-09-17T21:51:50.043Z,18.00
2018-09-17T21:54:19.760Z,18.00
2018-09-17T21:56:49.432Z,18.00
2018-09-17T21:59:19.111Z,18.00
2018-09-17T22:01:48.774Z,18.00
2018-09-17T22:04:18.557Z,17.90
2018-09-17T22:06:48.192Z,17.90
2018-09-17T22:09:18.008Z,17.90
2018-09-17T22:11:47.772Z,17.90
2018-09-17T22:14:17.408Z,17.90
2018-09-17T22:16:47.194Z,17.90
2018-09-17T22:19:16.854Z,17.90
2018-09-17T22:21:46.627Z,17.90
2018-09-17T22:24:16.375Z,17.90
2018-09-17T22:26:46.070Z,17.90
2018-09-17T22:29:15.955Z,17.80
2018-09-17T22:31:45.725Z,17.80
2018-09-17T22:34:15.420Z,17.70
2018-09-17T22:36:45.144Z,17.70
2018-09-17T22:39:14.901Z,17.70
2018-09-17T22:41:44.644Z,17.70
2018-09-17T22:44:14.421Z,17.70
2018-09-17T22:46:44.155Z,17.70
2018-09-17T22:49:13.744Z,17.70
2018-09-17T22:51:43.437Z,17.70
2018-09-17T22:54:12.986Z,17.70
2018-09-17T22:56:42.683Z,17.70
2018-09-17T22:59:12.359Z,17.70
2018-09-17T23:01:41.988Z,17.70
2018-09-17T23:04:11.667Z,17.70
2018-09-17T23:06:41.442Z,17.60
2018-09-17T23:09:11.745Z,17.60
2018-09-17T23:11:41.447Z,17.60
2018-09-17T23:14:11.228Z,17.60
2018-09-17T23:16:40.988Z,17.50
2018-09-17T23:19:10.952Z,17.50
2018-09-17T23:21:40.514Z,17.50
2018-09-17T23:24:10.379Z,17.50
2018-09-17T23:26:40.109Z,17.50
2018-09-17T23:29:09.723Z,17.40
2018-09-17T23:31:39.353Z,17.50
2018-09-17T23:34:09.044Z,17.40
2018-09-17T23:36:38.740Z,17.40
2018-09-17T23:39:10.808Z,17.40
2018-09-17T23:41:41.032Z,17.40
2018-09-17T23:44:10.818Z,17.40
2018-09-17T23:46:40.460Z,17.40
2018-09-17T23:49:10.240Z,17.40
2018-09-17T23:51:39.904Z,17.30
2018-09-17T23:54:09.764Z,17.30
2018-09-17T23:56:39.451Z,17.30
2018-09-17T23:59:09.219Z,17.30
